Time;durP1;ratioP1;P1;durP2;ratioP2;P2;SDS_P1;SDS_P2;PMS_P1;PMS_P2;Temp;Humidity;BMP_temperature;BMP_pressure;BME280_temperature;BME280_humidity;BME280_pressure;Samples;Min_cycle;Max_cycle;Signal;HPM_P1;HPM_P2
2022/01/29 00:01:03;;;;;;;;;;;9.30;99.90;;;;;;4924520;28;19941;-83
2022/01/29 00:03:36;;;;;;;;;;;10.10;99.90;;;;;;4954976;28;19931;-83
2022/01/29 00:06:07;;;;;;;;;;;10.20;99.90;;;;;;5031041;28;20560;-83
2022/01/29 00:08:37;;;;;;;;;;;8.30;99.90;;;;;;5044192;28;19925;-83
2022/01/29 00:11:12;;;;;;;;;;;10.00;99.90;;;;;;5003061;28;20012;-83
2022/01/29 00:13:43;;;;;;;;;;;10.00;99.90;;;;;;5000574;28;19925;-83
2022/01/29 00:16:16;;;;;;;;;;;10.20;99.90;;;;;;4993268;28;19925;-82
2022/01/29 00:18:49;;;;;;;;;;;10.00;99.90;;;;;;4978994;28;19930;-82
2022/01/29 00:21:38;;;;;;;;;;;10.10;99.90;;;;;;5004845;28;19925;-83
2022/01/29 00:24:15;;;;;;;;;;;10.10;99.90;;;;;;4974591;28;19938;-83
2022/01/29 00:26:57;;;;;;;;;;;10.10;99.90;;;;;;5016909;28;19930;-82
2022/01/29 00:29:54;;;;;;;;;;;10.50;99.90;;;;;;4981324;28;19931;-84
2022/01/29 00:32:35;;;;;;;;;;;;;;;;;;;;;
2022/01/29 00:35:28;;;;;;;;;;;10.10;99.90;;;;;;4966841;28;19926;-84
2022/01/29 00:38:05;;;;;;;;;;;10.60;99.90;;;;;;4945360;29;19927;-84
2022/01/29 00:40:37;;;;;;;;;;;9.20;99.90;;;;;;4925115;28;19927;-83
2022/01/29 00:43:07;;;;;;;;;;;11.10;99.90;;;;;;4910477;28;19934;-83
2022/01/29 00:45:48;;;;;;;;;;;10.20;99.90;;;;;;4969218;28;19929;-84
2022/01/29 00:49:05;;;;;;;;;;;10.00;99.90;;;;;;4955420;28;19942;-83
2022/01/29 00:51:36;;;;;;;;;;;10.30;99.90;;;;;;4946307;29;19938;-83
2022/01/29 00:54:10;;;;;;;;;;;10.50;99.90;;;;;;4945171;29;19926;-84
2022/01/29 00:56:47;;;;;;;;;;;11.30;99.90;;;;;;5037021;28;19932;-82
2022/01/29 00:59:31;;;;;;;;;;;10.20;99.90;;;;;;4952867;28;19926;-84
2022/01/29 01:02:13;;;;;;;;;;;10.20;99.90;;;;;;4928339;28;19937;-83
2022/01/29 01:05:27;;;;;;;;;;;10.50;99.90;;;;;;4949167;28;19934;-84
2022/01/29 01:08:28;;;;;;;;;;;;;;;;;;;;;
2022/01/29 01:11:11;;;;;;;;;;;10.10;99.90;;;;;;4943923;29;19934;-82
2022/01/29 01:13:48;;;;;;;;;;;10.70;99.90;;;;;;4588952;28;10000053;-83
2022/01/29 01:16:36;;;;;;;;;;;10.40;99.90;;;;;;4933349;28;19945;-83
2022/01/29 01:19:16;;;;;;;;;;;;;;;;;;;;;
2022/01/29 01:21:50;;;;;;;;;;;10.40;99.90;;;;;;4945200;29;19937;-84
2022/01/29 01:24:20;;;;;;;;;;;10.30;99.90;;;;;;4943703;28;19934;-83
2022/01/29 01:27:01;;;;;;;;;;;11.00;99.90;;;;;;5035623;28;19925;-83
2022/01/29 01:29:41;;;;;;;;;;;10.40;99.90;;;;;;4911584;28;19934;-83
2022/01/29 01:32:19;;;;;;;;;;;10.50;99.90;;;;;;4944794;28;19927;-83
2022/01/29 01:35:27;;;;;;;;;;;10.50;99.90;;;;;;4943066;29;19927;-83
2022/01/29 01:38:14;;;;;;;;;;;9.20;99.90;;;;;;4943460;28;19934;-83
2022/01/29 01:40:54;;;;;;;;;;;10.50;99.90;;;;;;4923276;29;19931;-83
2022/01/29 01:43:47;;;;;;;;;;;10.60;99.90;;;;;;4931203;28;19927;-82
2022/01/29 01:46:39;;;;;;;;;;;10.70;99.90;;;;;;4938149;28;19934;-83
2022/01/29 01:49:20;;;;;;;;;;;10.60;99.90;;;;;;5033871;28;19933;-84
2022/01/29 01:52:21;;;;;;;;;;;10.70;99.90;;;;;;5020185;28;19935;-83
2022/01/29 01:55:20;;;;;;;;;;;10.70;99.90;;;;;;5043368;28;19933;-83
2022/01/29 01:58:22;;;;;;;;;;;;;;;;;;;;;
2022/01/29 02:00:54;;;;;;;;;;;10.60;99.90;;;;;;4939711;29;19931;-83
2022/01/29 02:04:07;;;;;;;;;;;10.50;99.90;;;;;;4945779;29;19931;-84
2022/01/29 02:06:49;;;;;;;;;;;10.70;99.90;;;;;;5005636;28;19935;-84
2022/01/29 02:09:45;;;;;;;;;;;9.10;99.90;;;;;;4968762;28;19937;-83
2022/01/29 02:12:48;;;;;;;;;;;10.70;99.90;;;;;;5010765;28;19935;-83
2022/01/29 02:15:33;;;;;;;;;;;10.80;99.90;;;;;;5026687;28;19930;-83
2022/01/29 02:18:25;;;;;;;;;;;11.40;99.90;;;;;;4952281;28;19934;-84
2022/01/29 02:20:58;;;;;;;;;;;10.70;99.90;;;;;;4947489;29;19926;-84
2022/01/29 02:23:35;;;;;;;;;;;11.60;99.90;;;;;;4939982;28;19940;-83
2022/01/29 02:26:06;;;;;;;;;;;10.70;99.90;;;;;;5041399;28;20402;-83
2022/01/29 02:28:37;;;;;;;;;;;10.70;99.90;;;;;;4985454;28;19927;-84
2022/01/29 02:31:41;;;;;;;;;;;10.70;99.90;;;;;;4947796;29;19930;-84
2022/01/29 02:34:29;;;;;;;;;;;9.30;99.90;;;;;;4948318;29;19931;-83
2022/01/29 02:37:43;;;;;;;;;;;10.70;99.90;;;;;;4874891;29;19934;-82
2022/01/29 02:40:17;;;;;;;;;;;10.70;99.90;;;;;;4888574;29;19947;-83
2022/01/29 02:43:11;;;;;;;;;;;10.70;99.90;;;;;;4873329;29;19939;-83
2022/01/29 02:46:27;;;;;;;;;;;9.10;99.90;;;;;;4873223;29;20057;-82
2022/01/29 02:49:03;;;;;;;;;;;10.80;99.90;;;;;;4854142;29;19932;-83
2022/01/29 02:51:55;;;;;;;;;;;;;;;;;;;;;
2022/01/29 02:55:04;;;;;;;;;;;10.00;99.90;;;;;;4919315;29;19931;-82
2022/01/29 02:57:36;;;;;;;;;;;10.80;99.90;;;;;;4935327;28;19927;-83
2022/01/29 03:00:18;;;;;;;;;;;10.70;99.90;;;;;;4946086;29;20407;-84
2022/01/29 03:02:51;;;;;;;;;;;10.50;99.90;;;;;;4948413;29;19941;-85
2022/01/29 03:06:10;;;;;;;;;;;9.80;99.90;;;;;;4938448;29;19927;-83
2022/01/29 03:09:03;;;;;;;;;;;10.90;99.90;;;;;;4968797;28;19935;-82
2022/01/29 03:12:13;;;;;;;;;;;10.30;99.90;;;;;;5035925;28;19929;-83
2022/01/29 03:15:08;;;;;;;;;;;10.90;99.90;;;;;;4611815;28;10001054;-84
2022/01/29 03:17:52;;;;;;;;;;;10.80;99.90;;;;;;4950441;28;19931;-83
2022/01/29 03:20:25;;;;;;;;;;;10.80;99.90;;;;;;4948631;29;19931;-83
2022/01/29 03:23:43;;;;;;;;;;;10.80;99.90;;;;;;4949410;29;19934;-83
2022/01/29 03:26:20;;;;;;;;;;;10.50;99.90;;;;;;4948217;29;19937;-84
2022/01/29 03:29:25;;;;;;;;;;;10.80;99.90;;;;;;4920290;28;19938;-83
2022/01/29 03:32:13;;;;;;;;;;;;;;;;;;;;;
2022/01/29 03:35:06;;;;;;;;;;;10.20;99.90;;;;;;5039933;28;19925;-83
2022/01/29 03:38:03;;;;;;;;;;;11.10;99.90;;;;;;5047691;28;19935;-84
2022/01/29 03:40:49;;;;;;;;;;;10.80;99.90;;;;;;4927753;29;19935;-83
2022/01/29 03:43:53;;;;;;;;;;;10.90;99.90;;;;;;4901604;28;19934;-83
2022/01/29 03:46:32;;;;;;;;;;;11.10;99.90;;;;;;4928397;28;19934;-83
2022/01/29 03:49:39;;;;;;;;;;;10.90;99.90;;;;;;4940261;28;19961;-83
2022/01/29 03:52:40;;;;;;;;;;;;;;;;;;;;;
2022/01/29 03:55:19;;;;;;;;;;;10.90;99.90;;;;;;5048211;28;19931;-83
2022/01/29 03:58:15;;;;;;;;;;;11.20;99.90;;;;;;5026300;28;19936;-83
2022/01/29 04:01:07;;;;;;;;;;;11.10;99.90;;;;;;4984452;28;19938;-82
2022/01/29 04:04:09;;;;;;;;;;;11.00;99.90;;;;;;4946886;28;19927;-83
2022/01/29 04:06:50;;;;;;;;;;;11.20;99.90;;;;;;4949749;28;19942;-82
2022/01/29 04:10:00;;;;;;;;;;;11.60;99.90;;;;;;4993179;28;19941;-84
2022/01/29 04:12:37;;;;;;;;;;;11.10;99.90;;;;;;4946877;28;19961;-83
2022/01/29 04:15:31;;;;;;;;;;;10.20;99.90;;;;;;4946294;28;19926;-84
2022/01/29 04:18:23;;;;;;;;;;;11.00;99.90;;;;;;4946557;29;19931;-82
2022/01/29 04:21:07;;;;;;;;;;;9.90;99.90;;;;;;4951594;28;19953;-84
2022/01/29 04:23:49;;;;;;;;;;;11.80;99.90;;;;;;4934284;28;19927;-82
2022/01/29 04:26:44;;;;;;;;;;;11.00;99.90;;;;;;4935864;28;19938;-84
2022/01/29 04:29:29;;;;;;;;;;;;;;;;;;;;;
2022/01/29 04:36:16;;;;;;;;;;;11.10;99.90;;;;;;5045815;28;19931;-83
2022/01/29 04:39:14;;;;;;;;;;;11.00;99.90;;;;;;5041892;28;19932;-84
2022/01/29 04:41:50;;;;;;;;;;;11.10;99.90;;;;;;5031487;28;19932;-85
2022/01/29 04:44:34;;;;;;;;;;;11.20;99.90;;;;;;5047368;28;20278;-84
2022/01/29 04:47:14;;;;;;;;;;;11.10;99.90;;;;;;5025615;28;19932;-83
2022/01/29 04:49:55;;;;;;;;;;;10.90;99.90;;;;;;5024451;28;19925;-83
2022/01/29 04:52:53;;;;;;;;;;;11.10;99.90;;;;;;4950770;28;19993;-82
2022/01/29 04:55:57;;;;;;;;;;;11.20;99.90;;;;;;4910820;29;19934;-84
2022/01/29 04:59:12;;;;;;;;;;;;;;;;;;;;;
2022/01/29 05:02:19;;;;;;;;;;;11.30;99.90;;;;;;4927132;28;19935;-85
2022/01/29 05:05:19;;;;;;;;;;;11.30;99.90;;;;;;4964450;28;20523;-84
2022/01/29 05:08:10;;;;;;;;;;;11.30;99.90;;;;;;5045128;28;19925;-82
2022/01/29 05:11:15;;;;;;;;;;;11.30;99.90;;;;;;5046468;28;19939;-84
2022/01/29 05:14:05;;;;;;;;;;;11.50;99.90;;;;;;5046704;28;19932;-84
2022/01/29 05:27:26;;;;;;;;;;;10.50;99.90;;;;;;4937008;28;19935;-84
2022/01/29 05:30:18;;;;;;;;;;;10.80;99.90;;;;;;4947929;29;19931;-84
2022/01/29 05:33:58;;;;;;;;;;;11.00;99.90;;;;;;4949899;29;19927;-84
2022/01/29 05:36:57;;;;;;;;;;;11.40;99.90;;;;;;5036853;28;19929;-84
2022/01/29 05:40:16;;;;;;;;;;;10.50;99.90;;;;;;5032257;28;19921;-84
2022/01/29 05:43:06;;;;;;;;;;;11.30;99.90;;;;;;5029271;28;19926;-84
2022/01/29 05:46:16;;;;;;;;;;;11.60;99.90;;;;;;5044779;28;19925;-84
2022/01/29 05:49:40;;;;;;;;;;;11.50;99.90;;;;;;5040790;28;19933;-84
2022/01/29 05:52:33;;;;;;;;;;;13.40;99.90;;;;;;5000909;28;19931;-83
2022/01/29 05:55:42;;;;;;;;;;;13.00;99.90;;;;;;4945897;29;19945;-83
2022/01/29 05:58:36;;;;;;;;;;;11.40;99.90;;;;;;4971965;28;19950;-84
2022/01/29 06:01:25;;;;;;;;;;;11.40;99.90;;;;;;4947832;29;20486;-84
2022/01/29 06:04:51;;;;;;;;;;;11.50;99.90;;;;;;4979173;28;19940;-84
2022/01/29 06:07:40;;;;;;;;;;;11.30;99.90;;;;;;5046964;28;19937;-84
2022/01/29 06:10:58;;;;;;;;;;;11.70;99.90;;;;;;4928393;28;19927;-83
2022/01/29 06:14:06;;;;;;;;;;;10.20;99.90;;;;;;5003973;28;19928;-84
2022/01/29 06:17:25;;;;;;;;;;;10.40;99.90;;;;;;5041777;28;19925;-83
2022/01/29 06:20:17;;;;;;;;;;;10.60;99.90;;;;;;5017507;28;19931;-82
2022/01/29 06:23:33;;;;;;;;;;;11.10;99.90;;;;;;4928095;28;19928;-83
2022/01/29 06:26:43;;;;;;;;;;;11.10;99.90;;;;;;5028819;28;19939;-82
2022/01/29 06:33:15;;;;;;;;;;;10.80;99.90;;;;;;4948188;29;19927;-84
2022/01/29 06:35:54;;;;;;;;;;;11.50;99.90;;;;;;4949172;28;19931;-84
2022/01/29 06:38:56;;;;;;;;;;;11.30;99.90;;;;;;4959062;28;19931;-83
2022/01/29 06:41:42;;;;;;;;;;;11.70;99.90;;;;;;4947605;28;19927;-83
2022/01/29 06:45:37;;;;;;;;;;;12.60;99.90;;;;;;4947069;28;19931;-83
2022/01/29 06:48:29;;;;;;;;;;;11.30;99.90;;;;;;4934046;28;19954;-83
2022/01/29 06:51:48;;;;;;;;;;;11.20;99.90;;;;;;4879065;29;19942;-84
2022/01/29 06:54:54;;;;;;;;;;;11.20;99.90;;;;;;4891284;29;19931;-84
2022/01/29 06:57:46;;;;;;;;;;;11.10;99.90;;;;;;4880482;29;19953;-84
2022/01/29 07:01:06;;;;;;;;;;;11.40;99.90;;;;;;4891966;28;19916;-83
2022/01/29 07:03:39;;;;;;;;;;;11.20;99.90;;;;;;4875351;28;19939;-84
2022/01/29 07:06:21;;;;;;;;;;;;;;;;;;;;;
2022/01/29 07:09:15;;;;;;;;;;;11.10;99.90;;;;;;4995238;28;20335;-82
2022/01/29 07:12:31;;;;;;;;;;;11.50;99.90;;;;;;5050506;28;19932;-84
2022/01/29 07:15:03;;;;;;;;;;;11.30;99.90;;;;;;5033125;28;19925;-83
2022/01/29 07:17:42;;;;;;;;;;;11.70;99.90;;;;;;5006764;28;19930;-84
2022/01/29 07:23:45;;;;;;;;;;;12.10;99.90;;;;;;5047189;28;19925;-83
2022/01/29 07:34:12;;;;;;;;;;;11.30;99.90;;;;;;4985637;28;19921;-83
2022/01/29 07:37:34;;;;;;;;;;;11.00;99.90;;;;;;4933464;29;19926;-83
2022/01/29 07:41:15;;;;;;;;;;;11.30;99.90;;;;;;4931231;29;19930;-83
2022/01/29 07:44:29;;;;;;;;;;;11.10;99.90;;;;;;4950574;29;19933;-83
2022/01/29 07:47:34;;;;;;;;;;;11.00;99.90;;;;;;4928894;28;19935;-83
2022/01/29 07:53:57;;;;;;;;;;;11.20;99.90;;;;;;4897276;28;19927;-83
2022/01/29 07:57:00;;;;;;;;;;;11.10;99.90;;;;;;4952030;28;19961;-83
2022/01/29 08:00:01;;;;;;;;;;;11.20;99.90;;;;;;4952620;28;19927;-83
2022/01/29 08:02:48;;;;;;;;;;;11.00;99.90;;;;;;4999574;28;19940;-83
2022/01/29 08:06:16;;;;;;;;;;;11.10;99.90;;;;;;4969220;28;19945;-83
2022/01/29 08:08:57;;;;;;;;;;;11.40;99.90;;;;;;4964480;28;19925;-83
2022/01/29 08:12:20;;;;;;;;;;;;;;;;;;;;;
2022/01/29 08:15:23;;;;;;;;;;;12.30;99.90;;;;;;4925399;28;19927;-83
2022/01/29 08:18:46;;;;;;;;;;;;;;;;;;;;;
2022/01/29 08:24:25;;;;;;;;;;;11.00;99.90;;;;;;4894876;29;19927;-83
2022/01/29 08:27:08;;;;;;;;;;;11.20;99.90;;;;;;4908998;29;19927;-84
2022/01/29 08:29:54;;;;;;;;;;;11.10;99.90;;;;;;4908480;29;19927;-83
2022/01/29 08:32:52;;;;;;;;;;;11.20;99.90;;;;;;4935247;28;19932;-84
2022/01/29 08:35:54;;;;;;;;;;;11.20;99.90;;;;;;4967503;28;19930;-84
2022/01/29 08:39:00;;;;;;;;;;;11.80;99.90;;;;;;4927161;28;19931;-84
2022/01/29 08:41:49;;;;;;;;;;;11.40;99.90;;;;;;4946504;28;19931;-84
2022/01/29 08:45:23;;;;;;;;;;;11.40;99.90;;;;;;4979669;28;19937;-84
2022/01/29 08:48:09;;;;;;;;;;;11.20;99.90;;;;;;5026949;28;19932;-82
2022/01/29 08:51:36;;;;;;;;;;;11.20;99.90;;;;;;5029974;28;19933;-83
2022/01/29 08:54:36;;;;;;;;;;;11.70;99.90;;;;;;4996640;28;19926;-84
2022/01/29 08:57:35;;;;;;;;;;;11.20;99.90;;;;;;4990385;28;19932;-83
2022/01/29 09:01:16;;;;;;;;;;;11.20;99.90;;;;;;4997413;28;19926;-83
2022/01/29 09:03:45;;;;;;;;;;;11.30;99.90;;;;;;4994223;28;19932;-83
2022/01/29 09:06:15;;;;;;;;;;;11.30;99.90;;;;;;5011781;28;19935;-83
2022/01/29 09:09:43;;;;;;;;;;;;;;;;;;;;;
2022/01/29 09:13:32;;;;;;;;;;;;;;;;;;;;;
2022/01/29 09:17:21;;;;;;;;;;;12.00;99.90;;;;;;4977165;28;19933;-83
2022/01/29 09:20:10;;;;;;;;;;;10.60;99.90;;;;;;4944854;29;19927;-84
2022/01/29 09:26:45;;;;;;;;;;;12.00;99.90;;;;;;5000741;28;19926;-85
2022/01/29 09:29:52;;;;;;;;;;;11.70;99.90;;;;;;4952265;28;19927;-84
2022/01/29 09:32:33;;;;;;;;;;;11.40;99.90;;;;;;4964230;28;20020;-83
2022/01/29 09:35:34;;;;;;;;;;;11.40;99.90;;;;;;4981767;28;19929;-84
2022/01/29 09:42:23;;;;;;;;;;;11.80;99.90;;;;;;4948707;29;19937;-83
2022/01/29 09:45:05;;;;;;;;;;;11.60;99.90;;;;;;5015136;28;19936;-84
2022/01/29 09:51:41;;;;;;;;;;;11.70;99.90;;;;;;4995810;28;19925;-84
2022/01/29 09:54:35;;;;;;;;;;;11.90;99.90;;;;;;5005999;28;19929;-84
2022/01/29 09:57:47;;;;;;;;;;;12.10;99.90;;;;;;5019195;28;19926;-83
2022/01/29 10:00:56;;;;;;;;;;;12.30;99.90;;;;;;4967515;28;19993;-83
2022/01/29 10:04:33;;;;;;;;;;;;;;;;;;;;;
2022/01/29 10:07:36;;;;;;;;;;;11.60;99.90;;;;;;4976663;28;19933;-84
2022/01/29 10:10:49;;;;;;;;;;;11.70;99.90;;;;;;4925585;28;19927;-83
2022/01/29 10:13:46;;;;;;;;;;;12.00;99.90;;;;;;4927979;29;19937;-83
2022/01/29 10:17:21;;;;;;;;;;;12.30;99.90;;;;;;4942402;28;20524;-84
2022/01/29 10:20:43;;;;;;;;;;;12.20;99.90;;;;;;4968392;28;19942;-84
2022/01/29 10:23:17;;;;;;;;;;;12.20;99.90;;;;;;4991949;28;20235;-83
2022/01/29 10:29:19;;;;;;;;;;;12.30;99.90;;;;;;4969474;28;19937;-83
2022/01/29 10:35:43;;;;;;;;;;;12.00;99.90;;;;;;4936563;28;19961;-84
2022/01/29 10:39:07;;;;;;;;;;;12.50;99.90;;;;;;4936481;28;19935;-84
2022/01/29 10:42:14;;;;;;;;;;;12.70;99.90;;;;;;4920174;28;19935;-83
2022/01/29 10:45:26;;;;;;;;;;;12.50;99.90;;;;;;4920622;28;19934;-84
2022/01/29 10:48:12;;;;;;;;;;;12.50;99.90;;;;;;4942302;28;19963;-84
2022/01/29 10:51:12;;;;;;;;;;;12.50;99.90;;;;;;4943317;28;19926;-84
2022/01/29 10:53:44;;;;;;;;;;;12.60;99.90;;;;;;4943361;28;19930;-83
2022/01/29 10:56:50;;;;;;;;;;;12.70;99.90;;;;;;4956828;28;20053;-83
2022/01/29 10:59:53;;;;;;;;;;;12.60;99.90;;;;;;4933289;28;19931;-84
2022/01/29 11:03:01;;;;;;;;;;;12.70;99.90;;;;;;4919029;28;19934;-85
2022/01/29 11:06:16;;;;;;;;;;;13.00;99.90;;;;;;4947950;29;19933;-82
2022/01/29 11:08:57;;;;;;;;;;;13.00;99.90;;;;;;4989739;28;20691;-83
2022/01/29 11:11:38;;;;;;;;;;;12.80;99.90;;;;;;5015527;28;19927;-83
2022/01/29 11:14:45;;;;;;;;;;;12.80;99.90;;;;;;4944521;28;19926;-84
2022/01/29 11:17:51;;;;;;;;;;;13.00;99.90;;;;;;4983488;28;19940;-84
2022/01/29 11:20:57;;;;;;;;;;;;;;;;;;;;;
2022/01/29 11:23:53;;;;;;;;;;;13.40;99.90;;;;;;5019968;28;20278;-84
2022/01/29 11:26:45;;;;;;;;;;;13.90;99.90;;;;;;5005055;28;19925;-84
2022/01/29 11:29:38;;;;;;;;;;;;;;;;;;;;;
2022/01/29 11:33:01;;;;;;;;;;;;;;;;;;;;;
2022/01/29 11:36:11;;;;;;;;;;;13.00;99.90;;;;;;4971821;28;19929;-83
2022/01/29 11:38:40;;;;;;;;;;;13.20;99.90;;;;;;5009828;28;20416;-84
2022/01/29 11:41:11;;;;;;;;;;;14.60;99.90;;;;;;5018941;28;19935;-84
2022/01/29 11:44:17;;;;;;;;;;;13.10;99.90;;;;;;4992878;28;19941;-84
2022/01/29 11:47:19;;;;;;;;;;;13.70;99.90;;;;;;4963441;28;19935;-84
2022/01/29 11:49:48;;;;;;;;;;;13.20;99.90;;;;;;4953304;28;19911;-85
2022/01/29 11:53:02;;;;;;;;;;;;;;;;;;;;;
2022/01/29 11:55:37;;;;;;;;;;;13.20;99.90;;;;;;4966077;28;19927;-83
2022/01/29 11:59:34;;;;;;;;;;;13.30;99.90;;;;;;4966530;28;19927;-84
2022/01/29 12:03:21;;;;;;;;;;;13.20;99.90;;;;;;4901572;28;19942;-84
2022/01/29 12:09:38;;;;;;;;;;;13.50;99.90;;;;;;4968237;28;19936;-83
2022/01/29 12:12:18;;;;;;;;;;;13.90;99.90;;;;;;4927434;28;20041;-84
2022/01/29 12:14:55;;;;;;;;;;;13.50;99.90;;;;;;4993378;28;19926;-84
2022/01/29 12:17:37;;;;;;;;;;;13.50;99.90;;;;;;4600603;28;9999669;-85
2022/01/29 12:20:08;;;;;;;;;;;12.60;99.90;;;;;;4938165;28;19937;-84
2022/01/29 12:22:49;;;;;;;;;;;13.60;99.90;;;;;;4941725;28;19937;-84
2022/01/29 12:25:39;;;;;;;;;;;13.70;99.90;;;;;;4966215;28;19926;-84
2022/01/29 12:28:23;;;;;;;;;;;13.20;99.90;;;;;;4962997;28;19927;-84
2022/01/29 12:30:52;;;;;;;;;;;14.20;99.90;;;;;;4983482;28;19925;-84
2022/01/29 12:33:26;;;;;;;;;;;13.90;99.90;;;;;;5010106;28;19932;-83
2022/01/29 12:36:03;;;;;;;;;;;13.70;99.90;;;;;;4970828;28;19937;-84
2022/01/29 12:38:38;;;;;;;;;;;14.00;99.90;;;;;;5014687;28;20247;-85
2022/01/29 12:41:26;;;;;;;;;;;14.10;99.90;;;;;;4967085;28;19931;-84
2022/01/29 12:44:33;;;;;;;;;;;13.90;99.90;;;;;;4994328;28;19937;-83
2022/01/29 12:47:14;;;;;;;;;;;;;;;;;;;;;
2022/01/29 12:49:56;;;;;;;;;;;14.00;99.90;;;;;;4935475;28;19931;-84
2022/01/29 12:52:35;;;;;;;;;;;13.90;99.90;;;;;;4933457;28;19934;-84
2022/01/29 12:55:16;;;;;;;;;;;14.90;99.90;;;;;;4981608;28;19926;-84
2022/01/29 12:57:48;;;;;;;;;;;14.10;99.90;;;;;;4997303;28;19929;-84
2022/01/29 13:00:45;;;;;;;;;;;13.80;99.90;;;;;;4989639;28;19964;-83
2022/01/29 13:03:28;;;;;;;;;;;14.10;99.90;;;;;;4999381;28;19929;-83
2022/01/29 13:06:10;;;;;;;;;;;14.60;99.90;;;;;;4994200;28;19925;-83
2022/01/29 13:08:38;;;;;;;;;;;14.10;99.90;;;;;;4995985;28;19931;-84
2022/01/29 13:11:25;;;;;;;;;;;14.90;99.90;;;;;;5013744;28;20434;-84
2022/01/29 13:14:01;;;;;;;;;;;14.00;99.90;;;;;;5004818;28;19925;-83
2022/01/29 13:16:55;;;;;;;;;;;14.00;99.90;;;;;;4978033;28;19931;-83
2022/01/29 13:19:44;;;;;;;;;;;13.80;99.90;;;;;;4981344;28;19937;-84
2022/01/29 13:22:13;;;;;;;;;;;14.00;99.90;;;;;;4997584;28;19931;-84
2022/01/29 13:24:46;;;;;;;;;;;13.90;99.90;;;;;;4991509;28;19940;-83
2022/01/29 13:27:33;;;;;;;;;;;14.00;99.90;;;;;;4960176;29;19931;-83
2022/01/29 13:30:31;;;;;;;;;;;13.80;99.90;;;;;;4935903;28;19931;-82
2022/01/29 13:33:12;;;;;;;;;;;13.90;99.90;;;;;;4924223;29;19927;-83
2022/01/29 13:35:48;;;;;;;;;;;13.70;99.90;;;;;;4946491;28;19931;-83
2022/01/29 13:38:22;;;;;;;;;;;13.80;99.90;;;;;;4969970;28;19927;-84
2022/01/29 13:40:57;;;;;;;;;;;13.90;99.90;;;;;;4964307;28;20377;-83
2022/01/29 13:43:30;;;;;;;;;;;13.70;99.90;;;;;;4961840;28;19941;-83
2022/01/29 13:46:32;;;;;;;;;;;13.70;99.90;;;;;;4940492;28;19932;-83
2022/01/29 13:49:29;;;;;;;;;;;12.60;99.90;;;;;;4970746;28;19917;-83
2022/01/29 13:52:14;;;;;;;;;;;13.50;99.90;;;;;;4958157;28;19935;-83
2022/01/29 13:54:49;;;;;;;;;;;13.90;99.90;;;;;;4942146;28;20343;-83
2022/01/29 13:57:58;;;;;;;;;;;13.80;99.90;;;;;;4961709;28;20412;-83
2022/01/29 14:00:27;;;;;;;;;;;13.60;99.90;;;;;;4995503;28;19929;-83
2022/01/29 14:02:56;;;;;;;;;;;13.60;99.90;;;;;;4992132;28;19935;-83
2022/01/29 14:05:28;;;;;;;;;;;14.60;99.90;;;;;;5036192;28;19929;-83
2022/01/29 14:08:17;;;;;;;;;;;13.60;99.90;;;;;;4965305;28;19939;-83
2022/01/29 14:11:00;;;;;;;;;;;13.60;99.90;;;;;;5032553;28;19932;-82
2022/01/29 14:13:29;;;;;;;;;;;13.40;99.90;;;;;;4992006;28;19931;-83
2022/01/29 14:16:04;;;;;;;;;;;13.50;99.90;;;;;;4947576;29;20371;-83
2022/01/29 14:18:40;;;;;;;;;;;13.90;99.90;;;;;;4945314;29;19926;-83
2022/01/29 14:21:18;;;;;;;;;;;13.70;99.90;;;;;;4962820;28;19927;-84
2022/01/29 14:24:03;;;;;;;;;;;13.60;99.90;;;;;;4982845;28;19926;-84
2022/01/29 14:26:37;;;;;;;;;;;13.70;99.90;;;;;;4984002;28;19925;-84
2022/01/29 14:29:09;;;;;;;;;;;14.20;99.90;;;;;;5002593;28;19997;-83
2022/01/29 14:31:42;;;;;;;;;;;13.70;99.90;;;;;;5000970;28;19939;-83
2022/01/29 14:34:14;;;;;;;;;;;13.80;99.90;;;;;;5009455;28;19934;-83
2022/01/29 14:36:54;;;;;;;;;;;13.90;99.90;;;;;;4964226;28;19931;-83
2022/01/29 14:39:33;;;;;;;;;;;13.60;99.90;;;;;;4949403;28;19931;-83
2022/01/29 14:42:11;;;;;;;;;;;12.20;99.90;;;;;;5018754;28;19929;-83
2022/01/29 14:44:43;;;;;;;;;;;13.60;99.90;;;;;;4968180;28;19926;-84
2022/01/29 14:47:23;;;;;;;;;;;13.70;99.90;;;;;;4985551;28;19931;-85
2022/01/29 14:50:09;;;;;;;;;;;13.60;99.90;;;;;;5002423;28;19930;-83
2022/01/29 14:52:39;;;;;;;;;;;13.80;99.90;;;;;;4968286;28;19926;-83
2022/01/29 14:55:10;;;;;;;;;;;13.50;99.90;;;;;;5011011;28;19925;-83
2022/01/29 14:57:43;;;;;;;;;;;13.50;99.90;;;;;;4936852;28;19931;-82
2022/01/29 15:00:11;;;;;;;;;;;13.90;99.90;;;;;;5042220;28;19935;-82
2022/01/29 15:02:44;;;;;;;;;;;13.90;99.90;;;;;;5028712;28;19935;-83
2022/01/29 15:05:24;;;;;;;;;;;13.60;99.90;;;;;;5017684;28;19925;-83
2022/01/29 15:07:52;;;;;;;;;;;13.60;99.90;;;;;;5010979;28;19999;-83
2022/01/29 15:10:41;;;;;;;;;;;13.70;99.90;;;;;;4992366;28;19932;-83
2022/01/29 15:13:35;;;;;;;;;;;12.80;99.90;;;;;;4980897;28;19930;-83
2022/01/29 15:16:19;;;;;;;;;;;12.90;99.90;;;;;;4969813;28;19942;-83
2022/01/29 15:18:51;;;;;;;;;;;13.90;99.90;;;;;;4989424;28;19933;-83
2022/01/29 15:21:25;;;;;;;;;;;13.50;99.90;;;;;;4980890;28;20015;-83
2022/01/29 15:24:04;;;;;;;;;;;13.90;99.90;;;;;;4966677;28;19938;-83
2022/01/29 15:26:39;;;;;;;;;;;13.90;99.90;;;;;;4961943;28;19931;-83
2022/01/29 15:29:17;;;;;;;;;;;14.20;99.90;;;;;;4981554;28;20244;-83
2022/01/29 15:31:51;;;;;;;;;;;14.20;99.90;;;;;;4979143;28;19946;-83
2022/01/29 15:34:26;;;;;;;;;;;14.10;99.90;;;;;;4983061;28;19942;-83
2022/01/29 15:37:03;;;;;;;;;;;14.00;99.90;;;;;;4956016;28;19934;-83
2022/01/29 15:39:54;;;;;;;;;;;13.90;99.90;;;;;;4946605;28;19938;-83
2022/01/29 15:43:11;;;;;;;;;;;;;;;;;;;;;
2022/01/29 15:45:54;;;;;;;;;;;13.80;99.90;;;;;;4962348;28;21224;-84
2022/01/29 15:48:49;;;;;;;;;;;14.10;99.90;;;;;;4932578;28;20275;-84
2022/01/29 15:51:33;;;;;;;;;;;14.80;99.90;;;;;;4950257;28;19933;-83
2022/01/29 15:54:04;;;;;;;;;;;13.60;99.90;;;;;;4955797;28;19942;-82
2022/01/29 15:56:37;;;;;;;;;;;13.40;99.90;;;;;;4945152;28;19935;-81
2022/01/29 15:59:10;;;;;;;;;;;13.50;99.90;;;;;;4962394;28;19945;-83
2022/01/29 16:01:52;;;;;;;;;;;13.50;99.90;;;;;;4960504;28;20236;-82
2022/01/29 16:04:37;;;;;;;;;;;13.30;99.90;;;;;;4920579;28;19937;-82
2022/01/29 16:07:10;;;;;;;;;;;13.40;99.90;;;;;;4949462;28;19931;-84
2022/01/29 16:09:42;;;;;;;;;;;13.30;99.90;;;;;;4952453;28;20272;-83
2022/01/29 16:12:32;;;;;;;;;;;13.50;99.90;;;;;;4960903;28;19933;-83
2022/01/29 16:15:22;;;;;;;;;;;13.30;99.90;;;;;;4947330;28;20405;-84
2022/01/29 16:17:53;;;;;;;;;;;13.40;99.90;;;;;;4973601;28;19935;-84
2022/01/29 16:21:05;;;;;;;;;;;13.20;99.90;;;;;;4955005;28;19931;-83
2022/01/29 16:23:59;;;;;;;;;;;12.30;99.90;;;;;;4950157;28;19930;-84
2022/01/29 16:26:31;;;;;;;;;;;13.60;99.90;;;;;;4944752;28;20416;-83
2022/01/29 16:29:34;;;;;;;;;;;12.80;99.90;;;;;;4932355;28;19946;-83
2022/01/29 16:32:17;;;;;;;;;;;14.30;99.90;;;;;;4946428;28;19945;-81
2022/01/29 16:35:02;;;;;;;;;;;13.00;99.90;;;;;;4947012;28;20701;-83
2022/01/29 16:37:44;;;;;;;;;;;13.00;99.90;;;;;;4935431;28;19927;-83
2022/01/29 16:40:38;;;;;;;;;;;;;;;;;;;;;
2022/01/29 16:43:38;;;;;;;;;;;12.90;99.90;;;;;;4954285;28;19927;-83
2022/01/29 16:46:10;;;;;;;;;;;12.90;99.90;;;;;;4946904;28;19933;-81
2022/01/29 16:48:44;;;;;;;;;;;12.80;99.90;;;;;;4961244;28;19938;-82
2022/01/29 16:51:21;;;;;;;;;;;13.00;99.90;;;;;;4964528;28;19954;-81
2022/01/29 16:53:56;;;;;;;;;;;12.80;99.90;;;;;;4956093;28;19933;-81
2022/01/29 16:56:35;;;;;;;;;;;12.70;99.90;;;;;;4931829;28;19935;-81
2022/01/29 16:59:07;;;;;;;;;;;13.00;99.90;;;;;;4960709;28;19946;-82
2022/01/29 17:01:37;;;;;;;;;;;12.20;99.90;;;;;;4941526;28;19946;-83
2022/01/29 17:04:08;;;;;;;;;;;12.00;99.90;;;;;;4943149;28;20346;-81
2022/01/29 17:06:37;;;;;;;;;;;12.70;99.90;;;;;;4960446;28;19935;-82
2022/01/29 17:09:07;;;;;;;;;;;12.80;99.90;;;;;;4937907;28;19938;-82
2022/01/29 17:12:01;;;;;;;;;;;12.70;99.90;;;;;;4955129;28;19933;-82
2022/01/29 17:14:38;;;;;;;;;;;12.70;99.90;;;;;;4961501;28;19954;-82
2022/01/29 17:17:40;;;;;;;;;;;12.70;99.90;;;;;;4941900;28;19931;-82
2022/01/29 17:20:20;;;;;;;;;;;12.70;99.90;;;;;;4955548;28;19938;-83
2022/01/29 17:22:50;;;;;;;;;;;12.60;99.90;;;;;;4961674;28;19938;-82
2022/01/29 17:25:20;;;;;;;;;;;12.60;99.90;;;;;;4947138;28;19934;-82
2022/01/29 17:27:49;;;;;;;;;;;12.30;99.90;;;;;;4612737;28;9999744;-83
2022/01/29 17:30:21;;;;;;;;;;;12.50;99.90;;;;;;4601035;28;10000360;-83
2022/01/29 17:32:51;;;;;;;;;;;12.50;99.90;;;;;;4959865;28;19956;-83
2022/01/29 17:35:23;;;;;;;;;;;12.50;99.90;;;;;;4957286;28;19933;-82
2022/01/29 17:37:53;;;;;;;;;;;13.80;99.90;;;;;;4978275;28;19925;-82
2022/01/29 17:40:29;;;;;;;;;;;12.10;99.90;;;;;;4982048;28;21133;-83
2022/01/29 17:42:58;;;;;;;;;;;12.20;99.90;;;;;;4962324;28;19934;-83
2022/01/29 17:45:39;;;;;;;;;;;12.10;99.90;;;;;;4972211;28;19931;-82
2022/01/29 17:48:23;;;;;;;;;;;12.10;99.90;;;;;;4964567;28;19938;-82
2022/01/29 17:50:51;;;;;;;;;;;12.50;99.90;;;;;;4956497;28;19942;-82